createdAt,value
2018-10-11T00:00:50.429Z,27.70
2018-10-11T00:01:50.451Z,25.40
2018-10-11T00:02:50.412Z,26.50
2018-10-11T00:03:50.418Z,29.00
2018-10-11T00:04:50.384Z,30.40
2018-10-11T00:05:50.391Z,30.80
2018-10-11T00:06:50.386Z,25.70
2018-10-11T00:07:50.356Z,30.70
2018-10-11T00:08:50.340Z,33.40
2018-10-11T00:09:50.352Z,30.20
2018-10-11T00:10:50.319Z,29.80
2018-10-11T00:11:50.332Z,28.90
2018-10-11T00:12:50.295Z,28.20
2018-10-11T00:13:50.446Z,25.70
2018-10-11T00:14:50.311Z,27.10
2018-10-11T00:15:50.266Z,28.20
2018-10-11T00:16:50.253Z,28.90
2018-10-11T00:17:50.240Z,26.20
2018-10-11T00:18:50.228Z,30.70
2018-10-11T00:19:50.262Z,23.60
2018-10-11T00:20:50.208Z,27.00
2018-10-11T00:21:50.195Z,26.90
2018-10-11T00:22:50.189Z,25.20
2018-10-11T00:23:50.195Z,24.90
2018-10-11T00:24:50.168Z,25.60
2018-10-11T00:25:50.157Z,28.40
2018-10-11T00:26:50.165Z,27.20
2018-10-11T00:27:50.131Z,28.60
2018-10-11T00:28:50.121Z,25.80
2018-10-11T00:29:50.131Z,30.20
2018-10-11T00:30:50.202Z,30.30
2018-10-11T00:31:50.089Z,28.60
2018-10-11T00:32:50.072Z,27.70
2018-10-11T00:33:50.095Z,25.30
2018-10-11T00:34:50.054Z,27.60
2018-10-11T00:35:50.051Z,29.20
2018-10-11T00:36:50.044Z,31.00
2018-10-11T00:37:58.357Z,25.50
2018-10-11T00:38:50.038Z,30.10
2018-10-11T00:39:49.995Z,27.80
2018-10-11T00:40:49.987Z,28.20
2018-10-11T00:41:58.147Z,28.80
2018-10-11T00:42:58.442Z,27.20
2018-10-11T00:43:49.972Z,31.20
2018-10-11T00:44:49.941Z,29.30
2018-10-11T00:45:49.933Z,30.40
2018-10-11T00:46:59.465Z,29.40
2018-10-11T00:47:49.907Z,31.20
2018-10-11T00:48:49.891Z,28.90
2018-10-11T00:49:49.883Z,30.60
2018-10-11T00:50:49.881Z,30.70
2018-10-11T00:51:49.893Z,27.90
2018-10-11T00:52:49.856Z,26.80
2018-10-11T00:53:49.847Z,27.90
2018-10-11T00:54:49.830Z,32.60
2018-10-11T00:55:49.813Z,28.80
2018-10-11T00:56:49.831Z,30.20
2018-10-11T00:57:49.799Z,28.50
2018-10-11T00:58:49.831Z,27.60
2018-10-11T00:59:49.789Z,29.40
2018-10-11T01:00:49.791Z,29.60
2018-10-11T01:01:49.755Z,26.90
2018-10-11T01:02:49.739Z,24.80
2018-10-11T01:03:49.742Z,26.20
2018-10-11T01:04:49.761Z,32.50
2018-10-11T01:05:49.704Z,25.30
2018-10-11T01:06:49.700Z,26.80
2018-10-11T01:07:49.695Z,27.70
2018-10-11T01:08:49.676Z,29.40
2018-10-11T01:09:49.715Z,26.50
2018-10-11T01:10:49.650Z,29.30
2018-10-11T01:11:49.655Z,33.00
2018-10-11T01:12:49.663Z,26.10
2018-10-11T01:13:49.619Z,26.30
2018-10-11T01:14:49.626Z,28.40
2018-10-11T01:15:49.625Z,26.20
2018-10-11T01:16:49.606Z,28.20
2018-10-11T01:17:49.581Z,26.40
2018-10-11T01:18:56.540Z,30.60
2018-10-11T01:19:49.553Z,31.70
2018-10-11T01:20:49.591Z,24.90
2018-10-11T01:21:49.547Z,31.60
2018-10-11T01:22:49.539Z,32.40
2018-10-11T01:23:49.560Z,32.60
2018-10-11T01:24:49.498Z,28.90
2018-10-11T01:25:49.512Z,28.50
2018-10-11T01:26:49.475Z,30.10
2018-10-11T01:27:49.462Z,29.30
2018-10-11T01:28:49.455Z,29.10
2018-10-11T01:29:49.528Z,32.30
2018-10-11T01:30:49.453Z,35.80
2018-10-11T01:31:49.433Z,33.80
2018-10-11T01:32:49.416Z,29.70
2018-10-11T01:33:49.395Z,36.10
2018-10-11T01:34:49.392Z,31.70
2018-10-11T01:35:49.407Z,31.40
2018-10-11T01:36:49.372Z,34.70
2018-10-11T01:37:49.396Z,30.00
2018-10-11T01:38:49.401Z,32.80
2018-10-11T01:39:49.338Z,28.70
2018-10-11T01:40:49.353Z,34.00
2018-10-11T01:41:49.317Z,34.80
2018-10-11T01:42:49.295Z,31.00
2018-10-11T01:43:49.291Z,34.20
2018-10-11T01:44:49.305Z,38.40
2018-10-11T01:45:49.264Z,34.90
2018-10-11T01:46:49.249Z,41.90
2018-10-11T01:47:49.412Z,38.20
2018-10-11T01:48:49.251Z,35.10
2018-10-11T01:49:49.226Z,36.10
2018-10-11T01:50:49.234Z,36.10
2018-10-11T01:51:49.198Z,32.50
2018-10-11T01:52:49.184Z,30.40
2018-10-11T01:53:49.179Z,31.40
2018-10-11T01:54:49.171Z,40.80
2018-10-11T01:55:49.182Z,38.20
2018-10-11T01:56:49.280Z,34.00
2018-10-11T01:57:49.131Z,35.60
2018-10-11T01:58:49.115Z,35.10
2018-10-11T01:59:49.108Z,34.20
2018-10-11T02:00:49.145Z,40.90
2018-10-11T02:01:49.098Z,43.40
2018-10-11T02:02:49.077Z,42.40
2018-10-11T02:03:49.076Z,38.30
2018-10-11T02:04:49.052Z,38.50
2018-10-11T02:05:49.062Z,34.60
2018-10-11T02:06:49.029Z,37.90
2018-10-11T02:07:49.034Z,39.40
2018-10-11T02:08:49.004Z,41.20
2018-10-11T02:09:49.008Z,40.20
2018-10-11T02:10:49.027Z,41.80
2018-10-11T02:11:49.013Z,47.90
2018-10-11T02:12:48.961Z,41.70
2018-10-11T02:13:48.952Z,38.40
2018-10-11T02:14:48.944Z,41.70
2018-10-11T02:15:48.932Z,41.40
2018-10-11T02:16:48.950Z,35.70
2018-10-11T02:17:48.903Z,38.70
2018-10-11T02:18:48.892Z,40.00
2018-10-11T02:19:48.880Z,41.90
2018-10-11T02:20:48.879Z,41.30
2018-10-11T02:21:48.891Z,39.40
2018-10-11T02:22:48.846Z,42.10
2018-10-11T02:23:48.837Z,41.30
2018-10-11T02:24:48.852Z,40.70
2018-10-11T02:25:48.814Z,43.30
2018-10-11T02:26:48.963Z,44.70
2018-10-11T02:27:48.791Z,42.40
2018-10-11T02:28:48.785Z,37.20
2018-10-11T02:29:48.773Z,46.90
2018-10-11T02:30:48.773Z,42.40
2018-10-11T02:31:48.842Z,35.80
2018-10-11T02:32:48.737Z,44.30
2018-10-11T02:33:48.737Z,45.30
2018-10-11T02:34:48.715Z,43.10
2018-10-11T02:35:48.723Z,43.40
2018-10-11T02:36:48.701Z,44.30
2018-10-11T02:37:48.692Z,42.70
2018-10-11T02:38:48.674Z,41.80
2018-10-11T02:39:48.676Z,41.00
2018-10-11T02:40:48.681Z,43.80
2018-10-11T02:41:48.642Z,43.90
2018-10-11T02:42:48.629Z,38.40
2018-10-11T02:43:48.627Z,40.70
2018-10-11T02:44:48.610Z,43.30
2018-10-11T02:45:48.616Z,43.20
2018-10-11T02:46:48.617Z,39.70
2018-10-11T02:47:48.685Z,38.20
2018-10-11T02:48:48.556Z,42.10
2018-10-11T02:49:48.545Z,45.90
2018-10-11T02:50:48.535Z,46.70
2018-10-11T02:51:48.556Z,39.60
2018-10-11T02:52:48.514Z,36.10
2018-10-11T02:53:48.530Z,33.80
2018-10-11T02:54:48.501Z,38.40
2018-10-11T02:55:48.479Z,40.80
2018-10-11T02:56:48.471Z,42.20
2018-10-11T02:57:48.456Z,41.60
2018-10-11T02:58:48.478Z,38.20
2018-10-11T02:59:48.442Z,41.00
2018-10-11T03:00:48.422Z,42.90
2018-10-11T03:01:48.414Z,38.40
2018-10-11T03:02:48.401Z,42.10
2018-10-11T03:03:48.428Z,46.50
2018-10-11T03:04:48.378Z,43.60
2018-10-11T03:05:48.374Z,42.50
2018-10-11T03:06:48.360Z,39.90
2018-10-11T03:07:48.346Z,37.70
2018-10-11T03:08:48.357Z,40.60
2018-10-11T03:09:48.331Z,39.30
2018-10-11T03:10:48.318Z,37.60
2018-10-11T03:11:48.300Z,36.80
2018-10-11T03:12:48.288Z,39.90
2018-10-11T03:13:48.316Z,42.90
2018-10-11T03:14:48.277Z,33.80
2018-10-11T03:15:48.256Z,36.20
2018-10-11T03:16:48.244Z,39.20
2018-10-11T03:17:48.254Z,47.20
2018-10-11T03:18:48.245Z,49.50
2018-10-11T03:19:48.213Z,43.40
2018-10-11T03:20:48.215Z,39.20
2018-10-11T03:21:48.197Z,44.20
2018-10-11T03:22:48.178Z,46.80
2018-10-11T03:23:48.193Z,44.00
2018-10-11T03:24:48.164Z,38.30
2018-10-11T03:25:48.167Z,48.50
2018-10-11T03:26:48.146Z,38.70
2018-10-11T03:27:48.126Z,37.50
2018-10-11T03:28:48.112Z,41.50
2018-10-11T03:29:48.104Z,47.10
2018-10-11T03:30:48.114Z,41.60
2018-10-11T03:31:48.080Z,40.30
2018-10-11T03:32:48.077Z,46.20
2018-10-11T03:33:48.065Z,45.50
2018-10-11T03:34:48.044Z,47.40
2018-10-11T03:35:48.056Z,45.90
2018-10-11T03:36:48.031Z,46.70
2018-10-11T03:37:48.018Z,46.80
2018-10-11T03:38:48.001Z,41.40
2018-10-11T03:39:47.990Z,38.50
2018-10-11T03:40:47.997Z,41.50
2018-10-11T03:41:47.970Z,36.80
2018-10-11T03:42:47.958Z,35.80
2018-10-11T03:43:47.966Z,35.00
2018-10-11T03:44:47.961Z,48.40
2018-10-11T03:45:47.921Z,40.80
2018-10-11T03:46:47.913Z,43.10
2018-10-11T03:47:47.914Z,32.00
2018-10-11T03:48:47.908Z,36.50
2018-10-11T03:49:47.883Z,40.40
2018-10-11T03:50:47.869Z,43.70
2018-10-11T03:51:47.855Z,45.00
2018-10-11T03:52:47.846Z,41.80
2018-10-11T03:53:47.863Z,44.80
2018-10-11T03:54:47.831Z,48.50
2018-10-11T03:55:47.809Z,53.10
2018-10-11T03:56:47.803Z,51.10
2018-10-11T03:57:47.795Z,47.40
2018-10-11T03:58:47.802Z,41.90
2018-10-11T03:59:47.769Z,45.00
2018-10-11T04:00:47.758Z,42.30
2018-10-11T04:01:47.768Z,39.20
2018-10-11T04:02:47.737Z,38.70
2018-10-11T04:03:47.731Z,43.30
2018-10-11T04:04:47.709Z,36.90
2018-10-11T04:05:47.700Z,34.40
2018-10-11T04:06:47.717Z,42.40
2018-10-11T04:07:47.700Z,42.70
2018-10-11T04:08:47.669Z,49.50
2018-10-11T04:09:47.660Z,52.90
2018-10-11T04:10:47.667Z,50.80
2018-10-11T04:11:47.647Z,44.30
2018-10-11T04:12:47.623Z,42.20
2018-10-11T04:13:47.611Z,49.50
2018-10-11T04:14:47.600Z,49.60
2018-10-11T04:15:47.654Z,52.10
2018-10-11T04:16:47.584Z,44.90
2018-10-11T04:17:47.570Z,46.70
2018-10-11T04:18:47.559Z,40.20
2018-10-11T04:19:47.543Z,41.20
2018-10-11T04:20:47.557Z,41.00
2018-10-11T04:21:47.531Z,41.10
2018-10-11T04:22:47.510Z,41.10
2018-10-11T04:23:47.534Z,40.60
2018-10-11T04:24:47.496Z,37.60
2018-10-11T04:25:47.478Z,48.40
2018-10-11T04:26:47.490Z,46.00
2018-10-11T04:27:47.456Z,49.20
2018-10-11T04:28:47.486Z,50.60
2018-10-11T04:29:47.442Z,44.80
2018-10-11T04:30:47.422Z,42.90
2018-10-11T04:31:47.424Z,37.50
2018-10-11T04:32:47.414Z,42.60
2018-10-11T04:33:47.418Z,44.00
2018-10-11T04:34:47.404Z,38.10
2018-10-11T04:35:47.369Z,40.80
2018-10-11T04:36:47.357Z,48.20
2018-10-11T04:37:47.343Z,48.00
2018-10-11T04:38:47.340Z,36.20
2018-10-11T04:39:47.344Z,44.80
2018-10-11T04:40:47.311Z,39.10
2018-10-11T04:41:47.335Z,44.10
2018-10-11T04:42:47.348Z,45.10
2018-10-11T04:43:47.278Z,49.90
2018-10-11T04:44:47.299Z,45.40
2018-10-11T04:45:47.257Z,38.50
2018-10-11T04:46:47.244Z,40.50
2018-10-11T04:47:47.238Z,42.50
2018-10-11T04:48:47.277Z,42.00
2018-10-11T04:49:47.215Z,44.40
2018-10-11T04:50:47.202Z,41.70
2018-10-11T04:51:47.219Z,35.90
2018-10-11T04:52:47.177Z,41.80
2018-10-11T04:53:47.481Z,35.50
2018-10-11T04:54:47.156Z,45.40
2018-10-11T04:55:47.145Z,48.30
2018-10-11T04:56:47.142Z,39.80
2018-10-11T04:57:47.123Z,37.00
2018-10-11T04:58:47.134Z,36.50
2018-10-11T04:59:47.133Z,39.20
2018-10-11T05:00:47.090Z,36.00
2018-10-11T05:01:47.079Z,35.40
2018-10-11T05:02:47.072Z,34.00
2018-10-11T05:03:47.090Z,32.40
2018-10-11T05:04:47.064Z,33.00
2018-10-11T05:05:47.044Z,42.70
2018-10-11T05:06:47.023Z,46.10
2018-10-11T05:07:47.036Z,44.40
2018-10-11T05:08:47.012Z,44.20
2018-10-11T05:09:46.997Z,43.20
2018-10-11T05:10:46.978Z,38.20
2018-10-11T05:11:46.974Z,42.50
2018-10-11T05:12:46.996Z,46.90
2018-10-11T05:13:46.970Z,35.10
2018-10-11T05:14:46.935Z,39.30
2018-10-11T05:15:46.927Z,50.60
2018-10-11T05:16:46.912Z,51.40
2018-10-11T05:17:46.907Z,46.00
2018-10-11T05:18:46.927Z,43.70
2018-10-11T05:19:46.885Z,48.80
2018-10-11T05:20:46.884Z,44.90
2018-10-11T05:21:46.858Z,54.10
2018-10-11T05:22:46.852Z,50.00
2018-10-11T05:23:46.889Z,37.50
2018-10-11T05:24:46.827Z,39.40
2018-10-11T05:25:46.817Z,46.40
2018-10-11T05:26:46.803Z,45.90
2018-10-11T05:27:46.796Z,53.20
2018-10-11T05:28:46.804Z,49.10
2018-10-11T05:29:46.771Z,43.90
2018-10-11T05:30:46.766Z,50.10
2018-10-11T05:31:46.753Z,49.60
2018-10-11T05:32:46.747Z,52.60
2018-10-11T05:33:46.753Z,47.00
2018-10-11T05:34:46.720Z,53.40
2018-10-11T05:35:46.707Z,44.90
2018-10-11T05:36:46.703Z,40.00
2018-10-11T05:37:46.682Z,45.40
2018-10-11T05:38:46.693Z,41.20
2018-10-11T05:39:46.667Z,44.00
2018-10-11T05:40:46.653Z,48.60
2018-10-11T05:41:46.639Z,43.20
2018-10-11T05:42:46.633Z,54.90
2018-10-11T05:43:46.643Z,53.10
2018-10-11T05:44:46.607Z,43.80
2018-10-11T05:45:46.598Z,43.40
2018-10-11T05:46:46.606Z,42.70
2018-10-11T05:47:46.585Z,40.80
2018-10-11T05:48:46.591Z,43.60
2018-10-11T05:49:46.565Z,38.80
2018-10-11T05:50:46.574Z,44.80
2018-10-11T05:51:46.553Z,45.70
2018-10-11T05:52:46.517Z,40.50
2018-10-11T05:53:46.528Z,44.30
2018-10-11T05:54:46.505Z,48.10
2018-10-11T05:55:46.492Z,41.90
2018-10-11T05:56:46.535Z,39.80
2018-10-11T05:57:46.465Z,54.40
2018-10-11T05:58:46.462Z,53.00
2018-10-11T05:59:46.450Z,45.80
2018-10-11T06:00:46.463Z,47.80
2018-10-11T06:01:46.418Z,46.30
2018-10-11T06:02:46.417Z,53.40
2018-10-11T06:03:46.427Z,42.20
2018-10-11T06:04:46.386Z,45.80
2018-10-11T06:05:46.382Z,60.90
2018-10-11T06:06:46.363Z,42.30
2018-10-11T06:07:46.353Z,43.30
2018-10-11T06:08:46.364Z,43.70
2018-10-11T06:09:46.338Z,62.40
2018-10-11T06:10:46.320Z,53.00
2018-10-11T06:11:46.328Z,50.70
2018-10-11T06:12:46.304Z,45.80
2018-10-11T06:13:46.311Z,50.70
2018-10-11T06:14:46.284Z,51.20
2018-10-11T06:15:46.277Z,46.20
2018-10-11T06:16:46.254Z,53.90
2018-10-11T06:17:46.348Z,62.70
2018-10-11T06:18:46.231Z,49.20
2018-10-11T06:19:46.232Z,47.90
2018-10-11T06:20:46.212Z,54.90
2018-10-11T06:21:46.199Z,53.10
2018-10-11T06:22:46.223Z,53.30
2018-10-11T06:23:46.177Z,54.50
2018-10-11T06:24:46.189Z,56.80
2018-10-11T06:25:46.159Z,53.90
2018-10-11T06:26:46.143Z,54.00
2018-10-11T06:27:46.233Z,54.40
2018-10-11T06:28:46.187Z,49.90
2018-10-11T06:29:46.133Z,54.40
2018-10-11T06:30:46.102Z,60.90
2018-10-11T06:31:46.094Z,58.40
2018-10-11T06:32:46.105Z,54.30
2018-10-11T06:33:46.069Z,47.60
2018-10-11T06:34:46.081Z,54.10
2018-10-11T06:35:46.112Z,51.30
2018-10-11T06:36:46.046Z,52.20
2018-10-11T06:37:46.050Z,55.50
2018-10-11T06:38:46.058Z,49.00
2018-10-11T06:39:46.009Z,51.20
2018-10-11T06:40:45.988Z,48.60
2018-10-11T06:41:46.042Z,52.50
2018-10-11T06:42:46.071Z,52.20
2018-10-11T06:43:45.993Z,49.20
2018-10-11T06:44:45.944Z,51.10
2018-10-11T06:45:45.938Z,52.90
2018-10-11T06:46:45.929Z,57.90
2018-10-11T06:47:45.912Z,58.80
2018-10-11T06:48:45.948Z,52.50
2018-10-11T06:49:45.931Z,53.00
2018-10-11T06:50:45.879Z,57.10
2018-10-11T06:51:45.869Z,57.50
2018-10-11T06:52:45.858Z,49.20
2018-10-11T06:53:45.867Z,48.20
2018-10-11T06:54:45.836Z,52.20
2018-10-11T06:55:45.886Z,56.40
2018-10-11T06:56:45.812Z,54.30
2018-10-11T06:57:45.802Z,51.90
2018-10-11T06:58:45.813Z,53.80
2018-10-11T06:59:45.804Z,48.30
2018-10-11T07:00:45.767Z,53.40
2018-10-11T07:01:45.835Z,48.80
2018-10-11T07:02:45.750Z,49.50
2018-10-11T07:03:45.740Z,48.30
2018-10-11T07:04:45.746Z,47.90
2018-10-11T07:05:45.715Z,50.00
2018-10-11T07:06:45.704Z,56.00
2018-10-11T07:07:45.709Z,55.00
2018-10-11T07:08:45.710Z,52.20
2018-10-11T07:09:45.669Z,52.40
2018-10-11T07:10:45.657Z,52.00
2018-10-11T07:11:45.647Z,52.60
2018-10-11T07:12:45.641Z,55.90
2018-10-11T07:13:45.723Z,53.30
2018-10-11T07:14:45.615Z,51.80
2018-10-11T07:15:45.624Z,56.70
2018-10-11T07:16:45.594Z,52.50
2018-10-11T07:17:45.581Z,49.90
2018-10-11T07:18:45.567Z,52.60
2018-10-11T07:19:45.598Z,52.30
2018-10-11T07:20:45.548Z,52.40
2018-10-11T07:21:45.535Z,51.10
2018-10-11T07:22:45.523Z,55.50
2018-10-11T07:23:45.524Z,58.30
2018-10-11T07:24:45.592Z,50.60
2018-10-11T07:25:45.557Z,51.70
2018-10-11T07:26:45.486Z,52.60
2018-10-11T07:27:45.491Z,49.80
2018-10-11T07:28:45.464Z,52.50
2018-10-11T07:29:45.469Z,52.80
2018-10-11T07:30:45.438Z,51.90
2018-10-11T07:31:45.436Z,49.80
2018-10-11T07:32:45.430Z,55.90
2018-10-11T07:33:45.403Z,53.00
2018-10-11T07:34:45.549Z,51.00
2018-10-11T07:35:45.383Z,53.70
2018-10-11T07:36:45.368Z,54.50
2018-10-11T07:37:45.379Z,49.10
2018-10-11T07:38:45.349Z,45.30
2018-10-11T07:39:45.352Z,47.90
2018-10-11T07:40:45.386Z,48.40
2018-10-11T07:41:45.317Z,47.60
2018-10-11T07:42:45.360Z,50.40
2018-10-11T07:43:45.291Z,49.60
2018-10-11T07:44:45.279Z,53.40
2018-10-11T07:45:45.289Z,47.50
2018-10-11T07:46:45.280Z,50.60
2018-10-11T07:47:45.248Z,46.00
2018-10-11T07:48:45.242Z,51.40
2018-10-11T07:49:45.230Z,50.10
2018-10-11T07:50:45.212Z,46.90
2018-10-11T07:51:45.237Z,46.60
2018-10-11T07:52:45.219Z,48.00
2018-10-11T07:53:45.178Z,49.60
2018-10-11T07:54:45.170Z,47.90
2018-10-11T07:55:45.159Z,48.80
2018-10-11T07:56:45.210Z,43.80
2018-10-11T07:57:45.425Z,48.30
2018-10-11T07:58:45.127Z,46.80
2018-10-11T07:59:45.129Z,47.20
2018-10-11T08:00:45.100Z,46.40
2018-10-11T08:01:45.180Z,46.70
2018-10-11T08:02:45.079Z,41.20
2018-10-11T08:03:45.098Z,43.40
2018-10-11T08:04:45.060Z,44.00
2018-10-11T08:05:45.049Z,48.80
2018-10-11T08:06:45.071Z,43.00
2018-10-11T08:07:45.122Z,44.80
2018-10-11T08:08:45.036Z,43.50
2018-10-11T08:09:45.021Z,43.50
2018-10-11T08:10:45.055Z,42.40
2018-10-11T08:11:45.152Z,42.40
2018-10-11T08:12:44.969Z,41.60
2018-10-11T08:13:44.987Z,42.50
2018-10-11T08:14:44.955Z,40.10
2018-10-11T08:15:44.939Z,41.60
2018-10-11T08:16:45.108Z,40.00
2018-10-11T08:17:45.251Z,40.50
2018-10-11T08:18:45.013Z,37.60
2018-10-11T08:19:44.989Z,37.40
2018-10-11T08:20:44.883Z,40.60
2018-10-11T08:21:44.950Z,38.10
2018-10-11T08:22:44.861Z,43.10
2018-10-11T08:23:44.865Z,36.90
2018-10-11T08:24:45.060Z,34.60
2018-10-11T08:25:45.186Z,39.60
2018-10-11T08:26:44.951Z,35.20
2018-10-11T08:27:44.826Z,38.40
2018-10-11T08:28:44.812Z,37.40
2018-10-11T08:29:44.778Z,34.60
2018-10-11T08:30:44.776Z,34.40
2018-10-11T08:31:44.876Z,38.00
2018-10-11T08:32:44.762Z,33.60
2018-10-11T08:33:44.737Z,33.60
2018-10-11T08:34:44.761Z,50.20
2018-10-11T08:35:44.713Z,36.10
2018-10-11T08:36:44.699Z,69.40
2018-10-11T08:37:44.728Z,35.10
2018-10-11T08:38:44.679Z,39.50
2018-10-11T08:39:44.699Z,72.70
2018-10-11T08:40:44.659Z,56.20
2018-10-11T08:41:44.648Z,34.50
2018-10-11T08:42:44.641Z,42.10
2018-10-11T08:43:44.661Z,56.40
2018-10-11T08:44:44.641Z,38.80
2018-10-11T08:45:44.600Z,38.90
2018-10-11T08:46:44.592Z,38.00
2018-10-11T08:47:44.580Z,31.20
2018-10-11T08:48:44.590Z,31.80
2018-10-11T08:49:44.585Z,31.30
2018-10-11T08:50:44.561Z,41.40
2018-10-11T08:51:44.535Z,40.50
2018-10-11T08:52:44.528Z,33.50
2018-10-11T08:53:44.556Z,46.20
2018-10-11T08:54:44.525Z,38.10
2018-10-11T08:55:44.639Z,31.20
2018-10-11T08:56:44.480Z,30.90
2018-10-11T08:57:44.467Z,29.40
2018-10-11T08:58:44.478Z,32.60
2018-10-11T08:59:44.563Z,28.90
2018-10-11T09:00:44.435Z,27.20
2018-10-11T09:01:44.502Z,26.50
2018-10-11T09:02:44.410Z,27.10
2018-10-11T09:03:44.636Z,29.60
2018-10-11T09:04:44.408Z,30.30
2018-10-11T09:05:44.379Z,26.50
2018-10-11T09:06:44.397Z,30.80
2018-10-11T09:07:44.355Z,27.00
2018-10-11T09:08:44.361Z,27.70
2018-10-11T09:09:44.356Z,25.70
2018-10-11T09:10:44.341Z,26.20
2018-10-11T09:11:44.317Z,23.50
2018-10-11T09:12:44.304Z,24.30
2018-10-11T09:13:44.289Z,26.90
2018-10-11T09:14:44.317Z,27.50
2018-10-11T09:15:44.268Z,24.70
2018-10-11T09:16:44.255Z,23.30
2018-10-11T09:17:44.244Z,24.40
2018-10-11T09:18:44.238Z,27.10
2018-10-11T09:19:44.248Z,21.30
2018-10-11T09:20:44.224Z,19.70
2018-10-11T09:21:44.204Z,19.20
2018-10-11T09:22:44.191Z,18.70
2018-10-11T09:23:44.182Z,19.80
2018-10-11T09:24:44.211Z,18.90
2018-10-11T09:25:44.161Z,20.70
2018-10-11T09:26:44.147Z,17.30
2018-10-11T09:27:44.135Z,19.00
2018-10-11T09:28:44.124Z,24.20
2018-10-11T09:29:44.152Z,21.10
2018-10-11T09:30:44.104Z,20.20
2018-10-11T09:31:44.091Z,19.60
2018-10-11T09:32:44.105Z,17.30
2018-10-11T09:33:44.068Z,14.00
2018-10-11T09:34:44.089Z,14.90
2018-10-11T09:35:44.048Z,23.90
2018-10-11T09:36:44.035Z,15.30
2018-10-11T09:37:44.024Z,16.10
2018-10-11T09:38:44.030Z,12.90
2018-10-11T09:39:44.028Z,13.10
2018-10-11T09:40:44.016Z,13.50
2018-10-11T09:41:43.981Z,15.00
2018-10-11T09:42:43.986Z,16.10
2018-10-11T09:43:43.966Z,18.40
2018-10-11T09:44:43.946Z,14.80
2018-10-11T09:45:43.973Z,13.90
2018-10-11T09:46:43.924Z,17.20
2018-10-11T09:47:43.918Z,13.70
2018-10-11T09:48:43.977Z,14.00
2018-10-11T09:49:43.893Z,16.20
2018-10-11T09:50:43.882Z,13.80
2018-10-11T09:51:43.870Z,13.00
2018-10-11T09:52:43.861Z,13.70
2018-10-11T09:53:43.905Z,13.70
2018-10-11T09:54:43.857Z,13.30
2018-10-11T09:55:43.834Z,15.10
2018-10-11T09:56:43.911Z,17.60
2018-10-11T09:57:43.806Z,14.30
2018-10-11T09:58:43.817Z,15.10
2018-10-11T09:59:43.816Z,14.40
2018-10-11T10:00:43.786Z,15.90
2018-10-11T10:01:43.763Z,14.20
2018-10-11T10:02:43.804Z,15.70
2018-10-11T10:03:43.742Z,21.80
2018-10-11T10:04:43.728Z,16.00
2018-10-11T10:05:43.715Z,14.10
2018-10-11T10:06:43.705Z,124.90
2018-10-11T10:07:43.737Z,30.10
2018-10-11T10:08:43.683Z,45.90
2018-10-11T10:09:43.678Z,19.00
2018-10-11T10:10:43.660Z,14.20
2018-10-11T10:11:43.652Z,20.10
2018-10-11T10:12:43.658Z,23.40
2018-10-11T10:13:43.659Z,16.00
2018-10-11T10:14:43.615Z,13.90
2018-10-11T10:15:43.764Z,13.30
2018-10-11T10:16:43.593Z,12.20
2018-10-11T10:17:43.581Z,12.90
2018-10-11T10:18:43.601Z,12.60
2018-10-11T10:19:43.566Z,12.80
2018-10-11T10:20:43.566Z,13.00
2018-10-11T10:21:43.592Z,12.80
2018-10-11T10:22:43.527Z,12.80
2018-10-11T10:23:43.553Z,14.60
2018-10-11T10:24:43.505Z,13.00
2018-10-11T10:25:43.519Z,12.10
2018-10-11T10:26:43.571Z,12.80
2018-10-11T10:27:43.475Z,30.00
2018-10-11T10:28:43.466Z,14.30
2018-10-11T10:29:43.451Z,11.80
2018-10-11T10:30:43.465Z,12.90
2018-10-11T10:31:43.440Z,11.90
2018-10-11T10:32:43.417Z,11.50
2018-10-11T10:33:43.406Z,13.90
2018-10-11T10:34:43.396Z,12.90
2018-10-11T10:35:43.406Z,12.40
2018-10-11T10:36:43.375Z,12.30
2018-10-11T10:37:43.386Z,12.90
2018-10-11T10:38:43.351Z,12.10
2018-10-11T10:39:43.396Z,11.10
2018-10-11T10:40:43.359Z,13.40
2018-10-11T10:41:43.319Z,11.20
2018-10-11T10:42:43.308Z,12.50
2018-10-11T10:43:43.306Z,11.90
2018-10-11T10:44:43.319Z,11.50
2018-10-11T10:45:43.276Z,12.60
2018-10-11T10:46:43.268Z,11.10
2018-10-11T10:47:43.269Z,14.70
2018-10-11T10:48:43.286Z,10.90
2018-10-11T10:49:43.282Z,11.10
2018-10-11T10:50:43.224Z,11.30
2018-10-11T10:51:43.213Z,11.50
2018-10-11T10:52:43.218Z,10.90
2018-10-11T10:53:43.196Z,11.20
2018-10-11T10:54:43.299Z,10.70
2018-10-11T10:55:43.180Z,12.40
2018-10-11T10:56:43.178Z,10.70
2018-10-11T10:57:43.149Z,10.40
2018-10-11T10:58:43.147Z,10.70
2018-10-11T10:59:43.164Z,10.40
2018-10-11T11:00:43.125Z,10.70
2018-10-11T11:01:43.117Z,11.20
2018-10-11T11:02:43.094Z,9.90
2018-10-11T11:03:43.082Z,10.90
2018-10-11T11:04:43.122Z,10.80
2018-10-11T11:05:43.087Z,10.80
2018-10-11T11:06:43.068Z,10.80
2018-10-11T11:07:43.076Z,10.80
2018-10-11T11:08:43.028Z,10.90
2018-10-11T11:09:43.017Z,12.80
2018-10-11T11:10:43.006Z,10.30
2018-10-11T11:11:42.998Z,10.40
2018-10-11T11:12:43.002Z,10.10
2018-10-11T11:13:42.973Z,11.40
2018-10-11T11:14:42.978Z,11.10
2018-10-11T11:15:42.960Z,10.30
2018-10-11T11:16:42.941Z,10.90
2018-10-11T11:17:42.969Z,13.50
2018-10-11T11:18:42.936Z,10.30
2018-10-11T11:19:42.908Z,10.10
2018-10-11T11:20:42.901Z,10.40
2018-10-11T11:21:42.895Z,13.00
2018-10-11T11:22:42.897Z,11.40
2018-10-11T11:23:42.864Z,29.00
2018-10-11T11:24:42.862Z,11.30
2018-10-11T11:25:42.842Z,11.00
2018-10-11T11:26:42.833Z,10.20
2018-10-11T11:27:42.847Z,10.10
2018-10-11T11:28:42.809Z,11.80
2018-10-11T11:29:42.798Z,10.00
2018-10-11T11:30:42.796Z,9.90
2018-10-11T11:31:42.778Z,9.80
2018-10-11T11:32:42.787Z,9.30
2018-10-11T11:33:42.757Z,9.60
2018-10-11T11:34:42.767Z,10.10
2018-10-11T11:35:42.737Z,10.00
2018-10-11T11:36:42.731Z,10.50
2018-10-11T11:37:42.714Z,10.20
2018-10-11T11:38:42.722Z,9.90
2018-10-11T11:39:42.713Z,10.50
2018-10-11T11:40:42.706Z,10.30
2018-10-11T11:41:42.687Z,11.10
2018-10-11T11:42:42.664Z,10.10
2018-10-11T11:43:42.646Z,10.20
2018-10-11T11:44:42.635Z,10.70
2018-10-11T11:45:42.685Z,9.20
2018-10-11T11:46:42.644Z,9.50
2018-10-11T11:47:42.611Z,9.30
2018-10-11T11:48:42.592Z,9.50
2018-10-11T11:49:42.590Z,10.20
2018-10-11T11:50:42.572Z,9.20
2018-10-11T11:51:42.587Z,11.10
2018-10-11T11:52:42.547Z,9.40
2018-10-11T11:53:42.547Z,8.70
2018-10-11T11:54:42.626Z,9.40
2018-10-11T11:55:42.552Z,9.50
2018-10-11T11:56:42.570Z,9.10
2018-10-11T11:57:42.502Z,9.00
2018-10-11T11:58:42.488Z,9.20
2018-10-11T11:59:42.483Z,9.10
2018-10-11T12:00:42.492Z,9.70
2018-10-11T12:01:42.458Z,9.20
2018-10-11T12:02:42.535Z,8.50
2018-10-11T12:03:42.427Z,9.80
2018-10-11T12:04:42.418Z,9.40
2018-10-11T12:05:42.429Z,8.70
2018-10-11T12:06:42.394Z,8.60
2018-10-11T12:07:42.387Z,9.10
2018-10-11T12:08:42.424Z,9.40
2018-10-11T12:09:42.365Z,8.80
2018-10-11T12:10:42.406Z,9.90
2018-10-11T12:11:42.340Z,10.00
2018-10-11T12:12:42.333Z,9.50
2018-10-11T12:13:42.361Z,9.40
2018-10-11T12:14:42.308Z,9.30
2018-10-11T12:15:42.295Z,9.20
2018-10-11T12:16:42.397Z,8.80
2018-10-11T12:17:42.296Z,9.50
2018-10-11T12:18:42.287Z,9.20
2018-10-11T12:19:42.256Z,9.20
2018-10-11T12:20:42.264Z,10.70
2018-10-11T12:21:42.243Z,14.00
2018-10-11T12:22:42.226Z,10.90
2018-10-11T12:23:42.252Z,8.80
2018-10-11T12:24:42.225Z,10.90
2018-10-11T12:25:42.226Z,10.90
2018-10-11T12:26:42.176Z,9.70
2018-10-11T12:27:42.169Z,9.50
2018-10-11T12:28:42.400Z,8.90
2018-10-11T12:29:42.149Z,8.90
2018-10-11T12:30:42.158Z,9.30
2018-10-11T12:31:42.122Z,9.70
2018-10-11T12:32:42.128Z,9.10
2018-10-11T12:33:42.126Z,9.50
2018-10-11T12:34:42.093Z,9.90
2018-10-11T12:35:42.101Z,9.40
2018-10-11T12:36:42.078Z,9.40
2018-10-11T12:37:42.077Z,10.40
2018-10-11T12:38:42.130Z,9.90
2018-10-11T12:39:42.035Z,10.00
2018-10-11T12:40:42.059Z,9.70
2018-10-11T12:41:42.157Z,11.60
2018-10-11T12:42:42.002Z,9.20
2018-10-11T12:43:41.990Z,9.60
2018-10-11T12:44:41.982Z,9.70
2018-10-11T12:45:42.011Z,9.20
2018-10-11T12:46:42.167Z,9.30
2018-10-11T12:47:41.947Z,10.20
2018-10-11T12:48:41.960Z,9.90
2018-10-11T12:49:45.360Z,9.70
2018-10-11T12:50:41.933Z,9.10
2018-10-11T12:51:42.003Z,10.60
2018-10-11T12:52:41.896Z,9.50
2018-10-11T12:53:45.095Z,9.40
2018-10-11T12:54:41.878Z,8.90